createdAt,value
2019-06-27T00:00:37.781Z,4.03
2019-06-27T00:03:07.514Z,3.37
2019-06-27T00:05:37.246Z,4.20
2019-06-27T00:08:07.158Z,3.87
2019-06-27T00:10:37.025Z,3.90
2019-06-27T00:13:06.739Z,3.80
2019-06-27T00:15:36.547Z,3.20
2019-06-27T00:18:06.871Z,3.47
2019-06-27T00:20:36.683Z,4.10
2019-06-27T00:23:06.549Z,4.37
2019-06-27T00:25:36.137Z,3.97
2019-06-27T00:28:06.100Z,4.50
2019-06-27T00:30:36.024Z,4.07
2019-06-27T00:33:05.734Z,4.73
2019-06-27T00:35:35.416Z,3.87
2019-06-27T00:38:05.373Z,4.43
2019-06-27T00:40:35.076Z,4.20
2019-06-27T00:43:04.760Z,3.97
2019-06-27T00:45:35.491Z,4.73
2019-06-27T00:48:05.225Z,3.07
2019-06-27T00:50:35.182Z,4.10
2019-06-27T00:53:05.011Z,3.37
2019-06-27T00:55:34.678Z,2.67
2019-06-27T00:58:04.460Z,3.00
2019-06-27T01:00:34.340Z,3.07
2019-06-27T01:03:04.239Z,3.23
2019-06-27T01:05:34.317Z,3.37
2019-06-27T01:08:04.099Z,3.10
2019-06-27T01:10:33.863Z,3.50
2019-06-27T01:13:03.769Z,3.00
2019-06-27T01:15:33.485Z,2.93
2019-06-27T01:18:03.292Z,2.93
2019-06-27T01:20:32.989Z,3.37
2019-06-27T01:23:02.712Z,2.83
2019-06-27T01:25:32.507Z,2.67
2019-06-27T01:28:02.144Z,3.80
2019-06-27T01:30:32.058Z,2.70
2019-06-27T01:33:01.795Z,3.50
2019-06-27T01:35:31.575Z,3.10
2019-06-27T01:38:01.387Z,2.80
2019-06-27T01:40:31.288Z,2.60
2019-06-27T01:43:01.281Z,2.87
2019-06-27T01:45:38.117Z,3.20
2019-06-27T01:48:07.827Z,3.27
2019-06-27T01:50:37.724Z,3.10
2019-06-27T01:53:07.683Z,3.27
2019-06-27T01:55:37.428Z,2.97
2019-06-27T01:58:07.260Z,3.37
2019-06-27T02:00:36.987Z,2.60
2019-06-27T02:03:06.811Z,2.43
2019-06-27T02:05:36.549Z,3.30
2019-06-27T02:08:06.434Z,2.80
2019-06-27T02:10:36.316Z,2.70
2019-06-27T02:13:07.171Z,2.33
2019-06-27T02:15:36.886Z,2.70
2019-06-27T02:18:06.640Z,3.23
2019-06-27T02:20:36.377Z,2.57
2019-06-27T02:23:06.090Z,3.40
2019-06-27T02:25:35.924Z,3.80
2019-06-27T02:28:05.615Z,2.37
2019-06-27T02:30:44.594Z,3.13
2019-06-27T02:33:14.417Z,2.80
2019-06-27T02:35:44.058Z,2.03
2019-06-27T02:38:13.900Z,2.77
2019-06-27T02:40:43.911Z,2.60
2019-06-27T02:43:13.711Z,2.73
2019-06-27T02:45:43.519Z,2.37
2019-06-27T02:48:18.420Z,2.37
2019-06-27T02:50:48.185Z,2.80
2019-06-27T02:53:17.995Z,3.00
2019-06-27T02:55:47.889Z,1.93
2019-06-27T02:58:29.629Z,2.63
2019-06-27T03:00:49.248Z,2.80
2019-06-27T03:03:19.586Z,2.20
2019-06-27T03:05:49.347Z,2.80
2019-06-27T03:08:19.168Z,2.83
2019-06-27T03:10:49.067Z,2.70
2019-06-27T03:13:18.735Z,2.13
2019-06-27T03:15:48.374Z,2.50
2019-06-27T03:18:18.220Z,3.50
2019-06-27T03:20:47.911Z,2.20
2019-06-27T03:23:17.783Z,2.73
2019-06-27T03:25:47.505Z,2.50
2019-06-27T03:28:17.293Z,2.30
2019-06-27T03:30:47.065Z,2.20
2019-06-27T03:33:16.829Z,2.70
2019-06-27T03:35:46.551Z,3.50
2019-06-27T03:38:16.726Z,2.87
2019-06-27T03:40:46.597Z,3.47
2019-06-27T03:43:16.517Z,3.13
2019-06-27T03:45:46.170Z,2.53
2019-06-27T03:48:15.979Z,2.80
2019-06-27T03:50:45.807Z,2.70
2019-06-27T03:53:37.841Z,3.07
2019-06-27T03:56:07.608Z,2.90
2019-06-27T03:58:37.513Z,2.57
2019-06-27T04:01:07.262Z,2.60
2019-06-27T04:03:37.121Z,2.87
2019-06-27T04:06:07.021Z,2.67
2019-06-27T04:08:36.998Z,3.03
2019-06-27T04:11:06.805Z,2.87
2019-06-27T04:13:36.869Z,3.20
2019-06-27T04:16:06.568Z,3.03
2019-06-27T04:18:37.688Z,2.10
2019-06-27T04:21:07.585Z,2.90
2019-06-27T04:23:37.597Z,2.77
2019-06-27T04:26:07.320Z,2.50
2019-06-27T04:28:37.252Z,3.03
2019-06-27T04:31:07.805Z,3.30
2019-06-27T04:33:38.015Z,2.77
2019-06-27T04:36:07.675Z,3.27
2019-06-27T04:38:37.849Z,2.90
2019-06-27T04:41:07.681Z,3.13
2019-06-27T04:43:37.378Z,3.10
2019-06-27T04:46:07.603Z,2.90
2019-06-27T04:48:37.541Z,2.97
2019-06-27T04:51:07.269Z,3.80
2019-06-27T04:53:37.667Z,3.03
2019-06-27T04:56:08.476Z,4.60
2019-06-27T04:58:38.206Z,3.03
2019-06-27T05:01:08.009Z,3.90
2019-06-27T05:03:38.042Z,3.00
2019-06-27T05:06:07.750Z,4.07
2019-06-27T05:08:37.662Z,2.80
2019-06-27T05:11:07.463Z,3.17
2019-06-27T05:13:38.364Z,2.90
2019-06-27T05:16:08.131Z,4.17
2019-06-27T05:18:37.833Z,3.97
2019-06-27T05:21:07.592Z,2.90
2019-06-27T05:23:37.386Z,3.17
2019-06-27T05:26:07.380Z,3.17
2019-06-27T05:28:37.035Z,3.00
2019-06-27T05:31:06.882Z,2.77
2019-06-27T05:33:36.737Z,2.50
2019-06-27T05:36:06.407Z,3.03
2019-06-27T05:38:36.253Z,3.67
2019-06-27T05:41:06.427Z,2.80
2019-06-27T05:43:36.396Z,2.77
2019-06-27T05:46:06.378Z,2.63
2019-06-27T05:48:39.612Z,2.60
2019-06-27T05:51:07.393Z,3.50
2019-06-27T05:53:37.133Z,3.10
2019-06-27T05:56:06.785Z,2.87
2019-06-27T05:58:36.613Z,2.17
2019-06-27T06:01:06.577Z,3.17
2019-06-27T06:03:36.468Z,2.87
2019-06-27T06:06:06.861Z,2.77
2019-06-27T06:08:36.475Z,2.60
2019-06-27T06:11:08.680Z,2.40
2019-06-27T06:13:38.500Z,2.23
2019-06-27T06:16:08.368Z,2.10
2019-06-27T06:18:38.377Z,2.80
2019-06-27T06:21:08.629Z,2.20
2019-06-27T06:23:38.390Z,3.40
2019-06-27T06:26:08.221Z,3.50
2019-06-27T06:28:37.963Z,3.13
2019-06-27T06:31:07.641Z,2.60
2019-06-27T06:33:37.569Z,2.63
2019-06-27T06:36:07.331Z,2.27
2019-06-27T06:38:37.032Z,2.60
2019-06-27T06:41:07.052Z,2.83
2019-06-27T06:43:38.487Z,2.23
2019-06-27T06:46:08.233Z,2.93
2019-06-27T06:48:38.059Z,3.07
2019-06-27T06:51:07.840Z,2.60
2019-06-27T06:53:37.547Z,3.63
2019-06-27T06:56:07.252Z,3.43
2019-06-27T06:58:36.967Z,2.90
2019-06-27T07:01:06.631Z,3.17
2019-06-27T07:03:36.215Z,3.07
2019-06-27T07:06:05.978Z,3.63
2019-06-27T07:08:35.630Z,3.30
2019-06-27T07:11:06.622Z,3.33
2019-06-27T07:13:36.350Z,3.33
2019-06-27T07:16:06.011Z,3.30
2019-06-27T07:18:35.640Z,3.40
2019-06-27T07:21:06.850Z,2.83
2019-06-27T07:23:36.521Z,3.07
2019-06-27T07:26:06.251Z,2.77
2019-06-27T07:28:37.300Z,2.97
2019-06-27T07:31:17.361Z,4.07
2019-06-27T07:33:38.669Z,3.53
2019-06-27T07:36:09.604Z,3.07
2019-06-27T07:38:39.199Z,3.30
2019-06-27T07:41:11.947Z,3.67
2019-06-27T07:43:41.538Z,2.80
2019-06-27T07:46:24.611Z,3.40
2019-06-27T07:48:44.325Z,4.00
2019-06-27T07:51:17.265Z,2.67
2019-06-27T07:53:47.213Z,3.30
2019-06-27T07:56:17.177Z,3.07
2019-06-27T07:58:48.242Z,3.70
2019-06-27T08:01:34.019Z,2.77
2019-06-27T08:03:49.538Z,3.50
2019-06-27T08:06:22.244Z,3.27
2019-06-27T08:08:51.882Z,3.40
2019-06-27T08:11:22.750Z,3.20
2019-06-27T08:13:52.402Z,3.37
2019-06-27T08:16:22.421Z,3.50
2019-06-27T08:18:52.338Z,3.30
2019-06-27T08:21:22.475Z,3.03
2019-06-27T08:23:52.101Z,2.77
2019-06-27T08:26:22.012Z,3.30
2019-06-27T08:28:51.970Z,3.23
2019-06-27T08:31:23.142Z,2.57
2019-06-27T08:33:53.242Z,3.30
2019-06-27T08:36:25.833Z,3.13
2019-06-27T08:38:58.450Z,3.20
2019-06-27T08:41:30.835Z,3.53
2019-06-27T08:44:00.475Z,2.70
2019-06-27T08:46:33.329Z,3.00
2019-06-27T08:49:03.375Z,3.30
2019-06-27T08:51:35.002Z,2.53
2019-06-27T08:54:04.637Z,3.47
2019-06-27T08:56:34.347Z,3.60
2019-06-27T08:59:04.125Z,2.70
2019-06-27T09:01:34.022Z,3.20
2019-06-27T09:04:03.828Z,2.70
2019-06-27T09:06:33.338Z,3.10
2019-06-27T09:09:02.965Z,3.00
2019-06-27T09:11:36.985Z,3.10
2019-06-27T09:14:04.016Z,3.13
2019-06-27T09:16:52.824Z,3.93
2019-06-27T09:19:22.747Z,2.90
2019-06-27T09:21:52.478Z,3.50
2019-06-27T09:24:22.211Z,3.13
2019-06-27T09:26:51.811Z,2.30
2019-06-27T09:29:22.751Z,3.80
2019-06-27T09:31:53.357Z,3.30
2019-06-27T09:34:23.253Z,3.40
2019-06-27T09:36:53.120Z,2.40
2019-06-27T09:39:22.891Z,2.63
2019-06-27T09:41:52.759Z,3.17
2019-06-27T09:44:22.431Z,3.37
2019-06-27T09:46:52.055Z,3.60
2019-06-27T09:49:21.660Z,2.30
2019-06-27T09:51:51.222Z,3.00
2019-06-27T09:54:22.967Z,2.77
2019-06-27T09:56:53.124Z,2.90
2019-06-27T09:59:22.734Z,2.40
2019-06-27T10:01:52.619Z,2.87
2019-06-27T10:04:22.793Z,2.70
2019-06-27T10:06:52.541Z,3.13
2019-06-27T10:09:22.235Z,2.70
2019-06-27T10:11:53.432Z,3.10
2019-06-27T10:14:23.820Z,2.70
2019-06-27T10:16:53.568Z,2.20
2019-06-27T10:19:23.258Z,2.63
2019-06-27T10:21:53.119Z,3.00
2019-06-27T10:24:22.803Z,3.23
2019-06-27T10:26:52.417Z,1.87
2019-06-27T10:29:22.086Z,2.77
2019-06-27T10:31:51.853Z,2.40
2019-06-27T10:34:21.537Z,2.53
2019-06-27T10:36:51.125Z,2.27
2019-06-27T10:39:22.121Z,2.63
2019-06-27T10:41:51.774Z,3.40
2019-06-27T10:44:21.737Z,2.93
2019-06-27T10:46:51.657Z,2.13
2019-06-27T10:49:21.601Z,3.10
2019-06-27T10:51:51.299Z,2.97
2019-06-27T10:54:20.869Z,2.60
2019-06-27T10:56:50.688Z,2.70
2019-06-27T10:59:20.490Z,2.90
2019-06-27T11:01:50.251Z,2.40
2019-06-27T11:04:19.995Z,2.33
2019-06-27T11:06:49.888Z,2.70
2019-06-27T11:09:20.198Z,3.53
2019-06-27T11:11:49.845Z,3.27
2019-06-27T11:14:19.982Z,2.63
2019-06-27T11:16:49.707Z,2.33
2019-06-27T11:19:19.514Z,2.87
2019-06-27T11:21:49.149Z,2.93
2019-06-27T11:24:19.414Z,3.47
2019-06-27T11:26:50.013Z,2.37
2019-06-27T11:29:20.031Z,2.03
2019-06-27T11:31:50.043Z,2.90
2019-06-27T11:34:19.891Z,2.53
2019-06-27T11:36:51.106Z,2.20
2019-06-27T11:39:23.287Z,2.00
2019-06-27T11:41:52.336Z,2.97
2019-06-27T11:44:22.380Z,2.77
2019-06-27T11:46:53.195Z,2.50
2019-06-27T11:49:23.100Z,3.23
2019-06-27T11:51:52.878Z,2.97
2019-06-27T11:54:22.843Z,3.80
2019-06-27T11:56:55.811Z,3.83
2019-06-27T11:59:25.533Z,3.80
2019-06-27T12:01:55.521Z,2.60
2019-06-27T12:04:25.449Z,2.97
2019-06-27T12:06:55.382Z,4.30
2019-06-27T12:09:25.271Z,2.73
2019-06-27T12:11:55.123Z,2.97
2019-06-27T12:14:27.528Z,2.60
2019-06-27T12:16:57.392Z,2.40
2019-06-27T12:19:27.070Z,2.57
2019-06-27T12:21:56.852Z,2.40
2019-06-27T12:24:26.626Z,3.10
2019-06-27T12:26:56.430Z,2.20
2019-06-27T12:29:26.453Z,3.73
2019-06-27T12:31:57.351Z,2.40
2019-06-27T12:34:27.094Z,2.97
2019-06-27T12:36:56.825Z,3.33
2019-06-27T12:39:27.218Z,2.83
2019-06-27T12:41:57.111Z,2.80
2019-06-27T12:44:26.739Z,2.67
2019-06-27T12:46:56.847Z,3.20
2019-06-27T12:49:41.454Z,2.83
2019-06-27T12:51:58.559Z,2.47
2019-06-27T12:54:28.668Z,3.27
2019-06-27T12:56:58.663Z,3.33
2019-06-27T12:59:28.412Z,3.20
2019-06-27T13:01:58.367Z,4.03
2019-06-27T13:04:28.395Z,3.07
2019-06-27T13:06:58.341Z,3.60
2019-06-27T13:09:32.830Z,5.17
2019-06-27T13:12:02.053Z,4.10
2019-06-27T13:14:33.953Z,4.03
2019-06-27T13:17:03.840Z,4.43
2019-06-27T13:19:33.438Z,4.30
2019-06-27T13:22:03.230Z,3.33
2019-06-27T13:24:32.892Z,3.80
2019-06-27T13:27:02.717Z,3.57
2019-06-27T13:29:32.421Z,4.40
2019-06-27T13:32:02.327Z,4.00
2019-06-27T13:34:40.583Z,4.47
2019-06-27T13:37:03.530Z,4.00
2019-06-27T13:39:33.246Z,3.40
2019-06-27T13:42:03.788Z,4.77
2019-06-27T13:44:36.135Z,4.90
2019-06-27T13:47:05.892Z,4.73
2019-06-27T13:49:35.674Z,4.40
2019-06-27T13:52:05.433Z,5.70
2019-06-27T13:54:34.997Z,4.30
2019-06-27T13:57:04.960Z,4.50
2019-06-27T13:59:34.592Z,4.40
2019-06-27T14:02:04.152Z,5.30
2019-06-27T14:04:34.401Z,4.43
2019-06-27T14:07:04.529Z,4.60
2019-06-27T14:09:47.670Z,3.70
2019-06-27T14:12:05.917Z,4.30
2019-06-27T14:14:35.627Z,4.03
2019-06-27T14:17:05.567Z,4.13
2019-06-27T14:19:35.479Z,3.70
2019-06-27T14:22:05.086Z,4.10
2019-06-27T14:24:35.006Z,3.83
2019-06-27T14:27:05.283Z,3.00
2019-06-27T14:29:35.053Z,3.97
2019-06-27T14:32:04.706Z,4.20
2019-06-27T14:34:34.545Z,4.80
2019-06-27T14:37:04.242Z,5.40
2019-06-27T14:39:34.068Z,4.87
2019-06-27T14:42:03.592Z,4.53
2019-06-27T14:44:33.345Z,3.77
2019-06-27T14:47:03.021Z,4.00
2019-06-27T14:49:32.997Z,4.40
2019-06-27T14:52:02.655Z,4.30
2019-06-27T14:54:32.487Z,4.50
2019-06-27T14:57:02.074Z,7.80
2019-06-27T14:59:31.889Z,4.63
2019-06-27T15:02:01.537Z,4.70
2019-06-27T15:04:32.324Z,4.13
2019-06-27T15:07:04.460Z,4.00
2019-06-27T15:09:34.381Z,3.37
2019-06-27T15:12:04.070Z,3.70
2019-06-27T15:14:34.709Z,3.43
2019-06-27T15:17:04.429Z,3.23
2019-06-27T15:19:34.082Z,3.47
2019-06-27T15:22:03.687Z,3.50
2019-06-27T15:24:33.466Z,2.73
2019-06-27T15:27:03.103Z,2.73
2019-06-27T15:29:32.735Z,2.53
2019-06-27T15:32:02.649Z,3.00
2019-06-27T15:34:32.507Z,2.83
2019-06-27T15:37:02.329Z,2.30
2019-06-27T15:39:32.242Z,3.50
2019-06-27T15:42:01.918Z,2.70
2019-06-27T15:44:31.569Z,2.57
2019-06-27T15:47:01.275Z,2.63
2019-06-27T15:49:30.932Z,2.10
2019-06-27T15:52:01.114Z,2.47
2019-06-27T15:54:30.749Z,2.47
2019-06-27T15:57:00.444Z,2.57
2019-06-27T15:59:30.102Z,2.57
2019-06-27T16:01:59.913Z,4.00
2019-06-27T16:04:34.180Z,2.60
2019-06-27T16:07:02.034Z,2.27
2019-06-27T16:09:31.657Z,3.27
2019-06-27T16:12:01.251Z,2.43
2019-06-27T16:14:30.874Z,2.83
2019-06-27T16:17:00.578Z,2.17
2019-06-27T16:19:30.183Z,2.60
2019-06-27T16:22:00.006Z,1.67
2019-06-27T16:24:29.585Z,2.00
2019-06-27T16:26:59.425Z,2.47
2019-06-27T16:29:28.909Z,1.90
2019-06-27T16:31:58.594Z,2.30
2019-06-27T16:34:29.071Z,2.23
2019-06-27T16:37:01.861Z,2.27
2019-06-27T16:39:31.520Z,2.73
2019-06-27T16:42:01.263Z,2.10
2019-06-27T16:44:30.953Z,2.70
2019-06-27T16:47:00.682Z,2.87
2019-06-27T16:49:30.260Z,1.93
2019-06-27T16:52:00.154Z,2.53
2019-06-27T16:54:29.749Z,2.17
2019-06-27T16:56:59.600Z,2.30
2019-06-27T16:59:29.411Z,2.07
2019-06-27T17:01:59.241Z,2.40
2019-06-27T17:04:28.851Z,1.77
2019-06-27T17:06:58.474Z,2.40
2019-06-27T17:09:28.257Z,2.07
2019-06-27T17:11:57.950Z,2.40
2019-06-27T17:14:27.756Z,1.73
2019-06-27T17:16:57.509Z,2.00
2019-06-27T17:19:27.221Z,2.20
2019-06-27T17:21:57.210Z,2.20
2019-06-27T17:24:26.968Z,2.50
2019-06-27T17:26:56.527Z,1.90
2019-06-27T17:29:30.718Z,1.90
2019-06-27T17:32:00.586Z,2.47
2019-06-27T17:34:30.664Z,1.90
2019-06-27T17:37:01.030Z,1.53
2019-06-27T17:39:31.045Z,2.80
2019-06-27T17:42:01.050Z,1.57
2019-06-27T17:44:30.927Z,1.53
2019-06-27T17:47:01.081Z,1.33
2019-06-27T17:49:33.487Z,2.07
2019-06-27T17:52:03.779Z,1.83
2019-06-27T17:54:33.414Z,1.17
2019-06-27T17:57:03.535Z,2.20
2019-06-27T17:59:33.294Z,2.23
2019-06-27T18:02:03.116Z,1.37
2019-06-27T18:04:34.083Z,1.87
2019-06-27T18:07:13.394Z,2.50
2019-06-27T18:09:35.035Z,4.47
2019-06-27T18:12:05.234Z,1.90
2019-06-27T18:14:34.932Z,2.27
2019-06-27T18:17:04.928Z,1.40
2019-06-27T18:19:35.016Z,1.47
2019-06-27T18:22:04.852Z,2.60
2019-06-27T18:24:34.652Z,1.90
2019-06-27T18:27:06.596Z,1.70
2019-06-27T18:29:36.859Z,1.73
2019-06-27T18:32:07.825Z,1.53
2019-06-27T18:34:38.122Z,1.60
2019-06-27T18:37:08.119Z,1.93
2019-06-27T18:39:37.979Z,2.20
2019-06-27T18:42:08.003Z,1.20
2019-06-27T18:44:38.985Z,1.40
2019-06-27T18:47:08.709Z,1.60
2019-06-27T18:49:38.293Z,1.80
2019-06-27T18:52:08.050Z,2.00
2019-06-27T18:54:37.777Z,1.70
2019-06-27T18:57:07.650Z,1.70
2019-06-27T18:59:37.242Z,1.60
2019-06-27T19:02:10.431Z,1.90
2019-06-27T19:04:40.082Z,1.93
2019-06-27T19:07:10.128Z,2.40
2019-06-27T19:09:39.785Z,1.63
2019-06-27T19:12:09.975Z,1.80
2019-06-27T19:14:39.703Z,2.20
2019-06-27T19:17:16.301Z,2.00
2019-06-27T19:19:48.888Z,2.40
2019-06-27T19:22:36.542Z,2.80
2019-06-27T19:25:11.890Z,3.70
2019-06-27T19:27:41.492Z,4.07
2019-06-27T19:30:32.908Z,3.60
2019-06-27T19:33:02.974Z,3.37
2019-06-27T19:35:32.775Z,3.87
2019-06-27T19:38:03.107Z,4.30
2019-06-27T19:40:32.917Z,3.97
2019-06-27T19:43:02.916Z,4.60
2019-06-27T19:45:32.511Z,4.13
2019-06-27T19:48:05.431Z,4.63
2019-06-27T19:50:35.207Z,3.63
2019-06-27T19:53:04.835Z,4.10
2019-06-27T19:55:36.733Z,3.60
2019-06-27T19:58:06.382Z,4.73
2019-06-27T20:00:35.991Z,4.00
2019-06-27T20:03:06.469Z,5.33
2019-06-27T20:05:36.135Z,4.30
2019-06-27T20:08:18.285Z,3.73
2019-06-27T20:10:37.315Z,4.03
2019-06-27T20:13:07.239Z,4.33
2019-06-27T20:15:37.208Z,4.30
2019-06-27T20:18:07.097Z,3.90
2019-06-27T20:20:36.730Z,4.70
2019-06-27T20:23:06.439Z,4.73
2019-06-27T20:25:35.971Z,4.37
2019-06-27T20:28:05.763Z,4.27
2019-06-27T20:30:35.548Z,4.17
2019-06-27T20:33:05.446Z,3.77
2019-06-27T20:35:35.082Z,4.10
2019-06-27T20:38:04.799Z,4.20
2019-06-27T20:40:34.377Z,4.70
2019-06-27T20:43:04.315Z,3.50
2019-06-27T20:45:34.278Z,3.60
2019-06-27T20:48:03.988Z,3.70
2019-06-27T20:50:33.964Z,3.63
2019-06-27T20:53:03.902Z,3.77
2019-06-27T20:55:33.557Z,3.57
2019-06-27T20:58:03.560Z,4.13
2019-06-27T21:00:33.648Z,3.80
2019-06-27T21:03:05.219Z,3.90
2019-06-27T21:05:34.955Z,3.93
2019-06-27T21:08:05.137Z,4.27
2019-06-27T21:10:34.740Z,3.70
2019-06-27T21:13:04.529Z,4.13
2019-06-27T21:15:34.590Z,4.20
2019-06-27T21:18:04.745Z,3.60
2019-06-27T21:20:34.416Z,4.00
2019-06-27T21:23:06.219Z,4.67
2019-06-27T21:25:36.045Z,3.10
2019-06-27T21:28:05.889Z,3.87
2019-06-27T21:30:36.564Z,4.10
2019-06-27T21:33:07.180Z,4.53
2019-06-27T21:35:36.848Z,4.20
2019-06-27T21:38:06.517Z,3.70
2019-06-27T21:40:36.899Z,4.07
2019-06-27T21:43:07.009Z,5.33
2019-06-27T21:45:38.028Z,4.37
2019-06-27T21:48:07.780Z,4.30
2019-06-27T21:50:37.513Z,4.60
2019-06-27T21:53:07.510Z,4.50
2019-06-27T21:55:37.382Z,4.40
2019-06-27T21:58:07.153Z,5.28
2019-06-27T22:00:37.547Z,4.00
2019-06-27T22:03:11.708Z,4.67
2019-06-27T22:05:41.212Z,5.20
2019-06-27T22:08:11.760Z,4.13
2019-06-27T22:10:47.807Z,5.00
2019-06-27T22:13:17.126Z,4.80
2019-06-27T22:15:47.186Z,4.80
2019-06-27T22:18:17.330Z,4.70
2019-06-27T22:20:47.065Z,4.83
2019-06-27T22:23:16.712Z,5.30
2019-06-27T22:25:46.330Z,4.97
2019-06-27T22:28:15.926Z,5.17
2019-06-27T22:30:46.967Z,5.30
2019-06-27T22:33:16.632Z,4.90
2019-06-27T22:35:46.361Z,4.57
2019-06-27T22:38:34.284Z,4.00
2019-06-27T22:41:21.990Z,4.63
2019-06-27T22:44:09.164Z,5.20
2019-06-27T22:46:56.415Z,4.80
2019-06-27T22:49:25.902Z,5.30
2019-06-27T22:52:14.877Z,5.27
2019-06-27T22:54:45.487Z,5.53
2019-06-27T22:57:15.058Z,4.30
2019-06-27T22:59:44.658Z,4.53
2019-06-27T23:02:14.317Z,4.83
2019-06-27T23:04:43.988Z,5.33
2019-06-27T23:07:14.446Z,5.23
2019-06-27T23:09:56.486Z,4.60
2019-06-27T23:12:15.638Z,4.33
2019-06-27T23:14:45.369Z,4.43
2019-06-27T23:17:15.069Z,4.80
2019-06-27T23:19:44.623Z,4.60
2019-06-27T23:22:14.428Z,4.77
2019-06-27T23:24:44.120Z,4.90
2019-06-27T23:27:13.895Z,4.80
2019-06-27T23:29:43.479Z,4.73
2019-06-27T23:32:13.222Z,5.43
2019-06-27T23:34:42.800Z,5.40
2019-06-27T23:37:12.476Z,4.30
2019-06-27T23:39:42.204Z,5.07
2019-06-27T23:42:11.892Z,5.03
2019-06-27T23:44:41.562Z,4.57
2019-06-27T23:47:11.148Z,4.57
2019-06-27T23:49:40.657Z,4.40
2019-06-27T23:52:10.232Z,4.77
2019-06-27T23:54:39.990Z,4.67
2019-06-27T23:57:09.662Z,4.83
2019-06-27T23:59:39.273Z,4.43
